King William's Town, South Africa
Current Conditions -  °F | °C
As of 5:00 PM on Monday 22 Dec 2014 (Local Time) from FAEL Reporting Station
Broken Clouds Broken Clouds  
Wind Chill: 70°   Ceiling: 4200
Heat Index: 70°   Visibility: 6mi
Dew Point: 61°   Wind: 13mph
Humidity: 73%   Direction: 70°ENE
Pressure: 29.97"   Gusts: NA
Location:  32.88°S, 27.4°E
Report Text: FAEL 221500Z 07011KT 9999 SCT024 BKN042 21/16 Q1015
Loading
Personal Weather Stations






























Interactive Weather Map New forecast layout! Learn more

10-Day Weather Forecast

Advertisements
Track Severe Weather on mobile